createdAt,value
2019-02-28T00:01:48.974Z,48.81
2019-02-28T00:04:18.487Z,48.88
2019-02-28T00:06:48.005Z,49.01
2019-02-28T00:09:17.596Z,49.20
2019-02-28T00:11:47.118Z,49.14
2019-02-28T00:14:16.634Z,49.33
2019-02-28T00:16:46.159Z,49.38
2019-02-28T00:19:15.692Z,49.25
2019-02-28T00:21:45.210Z,49.33
2019-02-28T00:24:14.730Z,49.56
2019-02-28T00:26:47.559Z,49.62
2019-02-28T00:29:15.474Z,49.86
2019-02-28T00:31:49.436Z,49.99
2019-02-28T00:34:16.299Z,50.04
2019-02-28T00:36:45.823Z,50.27
2019-02-28T00:39:16.318Z,50.36
2019-02-28T00:41:45.855Z,50.29
2019-02-28T00:44:15.383Z,50.50
2019-02-28T00:46:45.414Z,50.35
2019-02-28T00:49:15.987Z,50.82
2019-02-28T00:51:45.512Z,50.85
2019-02-28T00:54:15.027Z,51.05
2019-02-28T00:56:44.558Z,51.26
2019-02-28T00:59:14.155Z,51.44
2019-02-28T01:01:45.886Z,51.56
2019-02-28T01:04:14.888Z,51.60
2019-02-28T01:06:44.409Z,51.92
2019-02-28T01:09:13.937Z,51.89
2019-02-28T01:11:44.776Z,51.94
2019-02-28T01:14:14.679Z,51.90
2019-02-28T01:16:44.216Z,52.12
2019-02-28T01:19:13.743Z,52.32
2019-02-28T01:21:43.279Z,52.23
2019-02-28T01:24:12.794Z,52.17
2019-02-28T01:26:43.286Z,52.27
2019-02-28T01:29:13.549Z,52.71
2019-02-28T01:31:43.422Z,53.34
2019-02-28T01:34:13.030Z,53.35
2019-02-28T01:36:42.594Z,53.21
2019-02-28T01:39:12.106Z,53.32
2019-02-28T01:41:42.325Z,53.69
2019-02-28T01:44:13.264Z,53.57
2019-02-28T01:46:42.830Z,53.13
2019-02-28T01:49:12.343Z,53.10
2019-02-28T01:51:41.866Z,53.09
2019-02-28T01:54:11.393Z,53.29
2019-02-28T01:56:40.955Z,53.16
2019-02-28T01:59:10.478Z,53.24
2019-02-28T02:01:39.997Z,53.23
2019-02-28T02:04:12.555Z,53.24
2019-02-28T02:06:40.742Z,53.39
2019-02-28T02:09:11.037Z,53.31
2019-02-28T02:11:41.329Z,53.30
2019-02-28T02:14:11.796Z,53.44
2019-02-28T02:16:41.368Z,53.55
2019-02-28T02:19:10.909Z,53.79
2019-02-28T02:21:40.496Z,53.76
2019-02-28T02:24:10.020Z,53.96
2019-02-28T02:26:42.323Z,53.99
2019-02-28T02:29:11.723Z,53.92
2019-02-28T02:31:43.489Z,54.11
2019-02-28T02:34:12.498Z,54.07
2019-02-28T02:36:42.017Z,54.50
2019-02-28T02:39:16.390Z,54.50
2019-02-28T02:41:42.746Z,54.76
2019-02-28T02:44:12.263Z,54.66
2019-02-28T02:46:41.786Z,54.49
2019-02-28T02:49:18.487Z,54.61
2019-02-28T02:51:49.064Z,54.74
2019-02-28T02:54:19.624Z,55.10
2019-02-28T02:56:45.972Z,55.13
2019-02-28T02:59:15.503Z,54.75
2019-02-28T03:01:45.023Z,54.52
2019-02-28T03:04:21.680Z,54.75
2019-02-28T03:06:46.730Z,54.98
2019-02-28T03:09:16.309Z,55.02
2019-02-28T03:11:45.839Z,54.89
2019-02-28T03:14:17.223Z,54.79
2019-02-28T03:16:46.613Z,55.25
2019-02-28T03:19:16.159Z,55.49
2019-02-28T03:21:51.311Z,55.74
2019-02-28T03:24:16.898Z,55.87
2019-02-28T03:26:46.419Z,56.38
2019-02-28T03:29:15.989Z,56.55
2019-02-28T03:31:54.966Z,56.98
2019-02-28T03:34:16.721Z,56.80
2019-02-28T03:36:55.149Z,56.61
2019-02-28T03:39:24.202Z,56.62
2019-02-28T03:41:49.042Z,57.19
2019-02-28T03:44:21.753Z,56.98
2019-02-28T03:46:51.098Z,57.40
2019-02-28T03:49:20.610Z,57.60
2019-02-28T03:51:50.157Z,57.36
2019-02-28T03:54:19.672Z,57.58
2019-02-28T03:56:52.706Z,57.75
2019-02-28T03:59:20.413Z,57.81
2019-02-28T04:01:50.012Z,57.95
2019-02-28T04:04:19.556Z,58.32
2019-02-28T04:06:49.151Z,58.27
2019-02-28T04:09:18.694Z,58.45
2019-02-28T04:11:48.208Z,58.91
2019-02-28T04:14:17.737Z,59.29
2019-02-28T04:16:52.457Z,59.37
2019-02-28T04:19:22.625Z,59.32
2019-02-28T04:21:51.741Z,59.52
2019-02-28T04:24:21.309Z,59.40
2019-02-28T04:26:50.818Z,59.30
2019-02-28T04:29:20.350Z,59.27
2019-02-28T04:31:51.433Z,59.29
2019-02-28T04:34:21.095Z,59.68
2019-02-28T04:36:50.607Z,59.99
2019-02-28T04:39:22.847Z,60.24
2019-02-28T04:41:51.345Z,60.43
2019-02-28T04:44:20.860Z,60.28
2019-02-28T04:46:50.373Z,60.24
2019-02-28T04:49:22.695Z,60.44
2019-02-28T04:51:51.110Z,60.37
2019-02-28T04:54:20.639Z,60.43
2019-02-28T04:56:50.162Z,60.79
2019-02-28T04:59:19.693Z,61.19
2019-02-28T05:01:49.228Z,61.23
2019-02-28T05:04:18.762Z,61.48
2019-02-28T05:06:48.285Z,61.56
2019-02-28T05:09:17.819Z,61.49
2019-02-28T05:11:47.328Z,61.43
2019-02-28T05:14:16.865Z,61.16
2019-02-28T05:16:47.448Z,61.03
2019-02-28T05:19:17.591Z,61.10
2019-02-28T05:21:47.107Z,61.62
2019-02-28T05:24:16.626Z,62.19
2019-02-28T05:26:46.136Z,62.03
2019-02-28T05:29:15.675Z,61.63
2019-02-28T05:31:45.213Z,62.00
2019-02-28T05:34:16.002Z,62.11
2019-02-28T05:36:45.995Z,61.96
2019-02-28T05:39:15.531Z,61.73
2019-02-28T05:41:48.931Z,61.39
2019-02-28T05:44:16.332Z,60.79
2019-02-28T05:46:45.854Z,60.44
2019-02-28T05:49:15.394Z,60.66
2019-02-28T05:51:44.923Z,60.82
2019-02-28T05:54:16.969Z,60.66
2019-02-28T05:56:45.685Z,60.35
2019-02-28T05:59:15.216Z,60.05
2019-02-28T06:01:47.088Z,59.16
2019-02-28T06:04:15.956Z,59.21
2019-02-28T06:06:45.480Z,59.10
2019-02-28T06:09:15.040Z,59.83
2019-02-28T06:11:44.563Z,59.35
2019-02-28T06:14:14.078Z,59.21
2019-02-28T06:16:46.888Z,59.53
2019-02-28T06:19:14.840Z,59.35
2019-02-28T06:21:44.370Z,59.15
2019-02-28T06:24:13.871Z,59.26
2019-02-28T06:26:43.391Z,59.19
2019-02-28T06:29:12.903Z,59.18
2019-02-28T06:31:45.546Z,59.89
2019-02-28T06:34:13.642Z,60.83
2019-02-28T06:36:43.191Z,61.24
2019-02-28T06:39:12.723Z,61.56
2019-02-28T06:41:42.261Z,61.72
2019-02-28T06:44:11.799Z,61.58
2019-02-28T06:46:41.335Z,61.64
2019-02-28T06:49:10.863Z,61.18
2019-02-28T06:51:40.396Z,61.20
2019-02-28T06:54:09.929Z,62.05
2019-02-28T06:56:39.467Z,62.46
2019-02-28T06:59:08.976Z,62.77
2019-02-28T07:01:38.502Z,62.60
2019-02-28T07:04:08.018Z,63.11
2019-02-28T07:06:37.542Z,63.37
2019-02-28T07:09:07.387Z,63.21
2019-02-28T07:11:36.930Z,63.24
2019-02-28T07:14:06.461Z,62.86
2019-02-28T07:16:37.951Z,62.78
2019-02-28T07:19:07.218Z,62.92
2019-02-28T07:21:42.904Z,63.34
2019-02-28T07:24:08.751Z,63.40
2019-02-28T07:26:38.285Z,63.79
2019-02-28T07:29:11.113Z,63.73
2019-02-28T07:31:39.021Z,64.11
2019-02-28T07:34:08.559Z,64.35
2019-02-28T07:36:38.100Z,64.36
2019-02-28T07:39:07.775Z,64.32
2019-02-28T07:41:37.298Z,64.70
2019-02-28T07:44:06.829Z,64.84
2019-02-28T07:46:41.908Z,65.07
2019-02-28T07:49:07.567Z,65.79
2019-02-28T07:51:37.113Z,65.68
2019-02-28T07:54:06.700Z,65.91
2019-02-28T07:56:42.625Z,65.92
2019-02-28T07:59:07.442Z,66.00
2019-02-28T08:01:36.958Z,66.12
2019-02-28T08:04:06.479Z,66.54
2019-02-28T08:06:36.309Z,66.53
2019-02-28T08:09:16.444Z,65.75
2019-02-28T08:11:45.942Z,65.68
2019-02-28T08:14:15.466Z,65.71
2019-02-28T08:16:45.015Z,65.58
2019-02-28T08:19:14.548Z,65.33
2019-02-28T08:21:49.414Z,65.39
2019-02-28T08:24:15.340Z,65.26
2019-02-28T08:26:44.890Z,65.00
2019-02-28T08:29:14.509Z,64.90
2019-02-28T08:31:44.214Z,64.71
2019-02-28T08:34:13.760Z,64.27
2019-02-28T08:36:43.801Z,64.32
2019-02-28T08:39:19.032Z,64.45
2019-02-28T08:41:49.659Z,64.55
2019-02-28T08:44:22.768Z,64.86
2019-02-28T08:46:50.773Z,65.08
2019-02-28T08:49:20.320Z,65.07
2019-02-28T08:51:49.927Z,64.88
2019-02-28T08:54:19.478Z,64.45
2019-02-28T08:56:49.765Z,64.22
2019-02-28T08:59:22.564Z,63.92
2019-02-28T09:01:51.520Z,63.25
2019-02-28T09:04:21.095Z,63.09
2019-02-28T09:06:50.659Z,62.92
2019-02-28T09:09:20.394Z,61.70
2019-02-28T09:11:53.149Z,61.49
2019-02-28T09:14:22.304Z,61.19
2019-02-28T09:16:51.912Z,61.49
2019-02-28T09:19:21.562Z,61.38
2019-02-28T09:21:52.914Z,61.78
2019-02-28T09:24:22.343Z,61.05
2019-02-28T09:26:51.903Z,61.15
2019-02-28T09:29:22.239Z,61.08
2019-02-28T09:31:52.040Z,60.81
2019-02-28T09:34:21.777Z,59.74
2019-02-28T09:36:55.247Z,60.05
2019-02-28T09:39:22.574Z,60.17
2019-02-28T09:41:52.119Z,60.31
2019-02-28T09:44:21.688Z,60.12
2019-02-28T09:46:51.720Z,59.79
2019-02-28T09:49:21.214Z,59.85
2019-02-28T09:51:50.726Z,59.95
2019-02-28T09:54:21.383Z,59.29
2019-02-28T09:56:51.790Z,58.89
2019-02-28T09:59:21.702Z,58.41
2019-02-28T10:02:00.914Z,58.35
2019-02-28T10:04:23.227Z,58.02
2019-02-28T10:06:53.090Z,57.68
2019-02-28T10:09:23.173Z,58.13
2019-02-28T10:11:53.097Z,57.25
2019-02-28T10:14:25.624Z,58.58
2019-02-28T10:16:56.622Z,57.96
2019-02-28T10:19:28.139Z,57.55
2019-02-28T10:22:00.464Z,57.23
2019-02-28T10:24:31.475Z,57.36
2019-02-28T10:27:03.423Z,57.74
2019-02-28T10:29:32.616Z,57.17
2019-02-28T10:32:02.268Z,56.76
2019-02-28T10:34:36.446Z,56.57
2019-02-28T10:37:07.029Z,56.42
2019-02-28T10:39:36.783Z,56.10
2019-02-28T10:42:06.294Z,56.90
2019-02-28T10:44:41.349Z,56.90
2019-02-28T10:47:11.087Z,56.54
2019-02-28T10:49:48.796Z,56.54
2019-02-28T10:52:19.375Z,56.19
2019-02-28T10:54:49.375Z,56.35
2019-02-28T10:57:18.993Z,56.36
2019-02-28T10:59:48.634Z,56.06
2019-02-28T11:02:19.962Z,55.98
2019-02-28T11:04:49.541Z,55.78
2019-02-28T11:07:19.067Z,55.49
2019-02-28T11:09:48.671Z,55.32
2019-02-28T11:12:20.318Z,55.17
2019-02-28T11:14:49.432Z,55.58
2019-02-28T11:17:18.974Z,55.22
2019-02-28T11:19:52.003Z,55.41
2019-02-28T11:22:20.306Z,56.02
2019-02-28T11:24:50.160Z,55.87
2019-02-28T11:27:22.851Z,55.57
2019-02-28T11:29:55.573Z,55.42
2019-02-28T11:32:26.404Z,55.42
2019-02-28T11:34:59.577Z,54.21
2019-02-28T11:37:29.113Z,53.80
2019-02-28T11:39:58.659Z,53.28
2019-02-28T11:42:34.351Z,53.45
2019-02-28T11:45:03.971Z,52.93
2019-02-28T11:47:34.944Z,53.25
2019-02-28T11:50:07.681Z,53.30
2019-02-28T11:52:36.277Z,52.66
2019-02-28T11:55:07.043Z,52.17
2019-02-28T11:57:37.702Z,52.20
2019-02-28T14:38:58.581Z,53.26
2019-02-28T14:41:31.779Z,53.11
2019-02-28T14:43:59.434Z,52.23
2019-02-28T14:46:28.997Z,51.69
2019-02-28T14:48:58.546Z,51.11
2019-02-28T14:51:28.571Z,50.72
2019-02-28T14:53:58.939Z,50.67
2019-02-28T14:56:28.485Z,50.71
2019-02-28T14:58:58.131Z,50.43
2019-02-28T15:01:27.696Z,50.49
2019-02-28T15:03:57.306Z,50.23
2019-02-28T15:06:29.607Z,50.06
2019-02-28T15:08:58.201Z,50.04
2019-02-28T15:11:28.645Z,50.47
2019-02-28T15:13:58.213Z,50.41
2019-02-28T15:16:29.568Z,50.44
2019-02-28T15:19:00.660Z,50.24
2019-02-28T15:21:30.224Z,50.69
2019-02-28T15:23:59.863Z,50.45
2019-02-28T15:26:32.156Z,50.27
2019-02-28T15:29:00.786Z,50.38
2019-02-28T15:31:30.384Z,50.26
2019-02-28T15:34:02.242Z,50.18
2019-02-28T15:36:32.588Z,50.36
2019-02-28T15:39:02.155Z,50.04
2019-02-28T15:41:33.703Z,50.07
2019-02-28T15:44:04.402Z,50.16
2019-02-28T15:46:35.904Z,50.34
2019-02-28T15:49:06.456Z,50.24
2019-02-28T15:51:37.505Z,50.32
2019-02-28T15:54:07.069Z,50.33
2019-02-28T15:56:36.662Z,50.21
2019-02-28T15:59:06.361Z,50.16
2019-02-28T16:01:36.001Z,49.90
2019-02-28T16:04:05.672Z,49.96
2019-02-28T16:06:35.210Z,49.94
2019-02-28T16:09:07.465Z,49.89
2019-02-28T16:11:41.025Z,49.81
2019-02-28T16:14:14.528Z,49.88
2019-02-28T16:16:40.946Z,49.80
2019-02-28T16:19:11.883Z,49.52
2019-02-28T16:21:44.801Z,49.58
2019-02-28T16:24:16.287Z,49.52
2019-02-28T16:26:45.819Z,49.50
2019-02-28T16:29:20.404Z,49.44
2019-02-28T16:31:46.694Z,49.46
2019-02-28T16:34:16.238Z,49.39
2019-02-28T16:36:45.865Z,49.42
2019-02-28T16:39:16.898Z,49.51
2019-02-28T16:41:46.793Z,49.41
2019-02-28T16:44:16.364Z,49.44
2019-02-28T16:46:46.434Z,49.62
2019-02-28T16:49:17.345Z,49.84
2019-02-28T16:51:46.916Z,49.92
2019-02-28T16:54:19.408Z,50.13
2019-02-28T16:56:47.727Z,50.30
2019-02-28T16:59:17.304Z,50.84
2019-02-28T17:01:46.850Z,50.49
2019-02-28T17:04:17.209Z,50.57
2019-02-28T17:06:48.527Z,51.00
2019-02-28T17:09:22.174Z,51.49
2019-02-28T17:11:58.926Z,51.78
2019-02-28T17:14:28.535Z,51.99
2019-02-28T17:17:03.918Z,52.12
2019-02-28T17:19:33.475Z,52.08
2019-02-28T17:22:03.464Z,52.24
2019-02-28T17:24:33.013Z,52.09
2019-02-28T17:27:25.390Z,52.13
2019-02-28T17:30:00.438Z,52.18
2019-02-28T17:32:31.216Z,52.04
2019-02-28T17:35:01.820Z,52.32
2019-02-28T17:37:32.137Z,52.31
2019-02-28T17:40:01.745Z,52.20
2019-02-28T17:42:31.757Z,52.26
2019-02-28T17:45:15.506Z,52.42
2019-02-28T17:48:52.632Z,52.80
2019-02-28T17:52:01.609Z,52.49
2019-02-28T17:55:12.749Z,52.96
2019-02-28T17:58:13.419Z,52.99
2019-02-28T18:01:38.717Z,52.76
2019-02-28T18:04:36.201Z,52.98
2019-02-28T18:07:45.738Z,52.93
2019-02-28T18:11:11.667Z,53.29
2019-02-28T18:14:22.717Z,53.30
2019-02-28T18:17:32.384Z,52.91
2019-02-28T18:20:28.991Z,53.16
2019-02-28T18:23:37.854Z,53.17
2019-02-28T18:26:39.440Z,53.19
2019-02-28T18:29:38.364Z,53.87
2019-02-28T18:32:07.902Z,53.50
2019-02-28T18:34:37.903Z,53.28
2019-02-28T18:37:07.509Z,53.77
2019-02-28T18:39:37.046Z,53.54
2019-02-28T18:42:06.583Z,54.29
2019-02-28T18:44:37.473Z,54.38
2019-02-28T18:47:07.604Z,54.63
2019-02-28T18:49:37.196Z,55.54
2019-02-28T18:52:06.754Z,55.80
2019-02-28T18:54:36.378Z,55.84
2019-02-28T18:57:05.982Z,55.38
2019-02-28T18:59:35.528Z,55.19
2019-02-28T19:02:05.220Z,55.39
2019-02-28T19:04:34.768Z,55.73
2019-02-28T19:07:04.332Z,55.49
2019-02-28T19:09:33.884Z,55.86
2019-02-28T19:12:03.418Z,56.11
2019-02-28T19:14:32.961Z,57.08
2019-02-28T19:17:02.508Z,57.33
2019-02-28T19:19:32.055Z,57.12
2019-02-28T19:22:01.585Z,60.12
2019-02-28T19:24:31.120Z,62.11
2019-02-28T19:27:00.653Z,62.81
2019-02-28T19:29:31.167Z,62.66
2019-02-28T19:32:00.729Z,63.06
2019-02-28T19:34:30.336Z,63.47
2019-02-28T19:36:59.867Z,64.04
2019-02-28T19:39:30.357Z,63.39
2019-02-28T19:41:59.943Z,63.59
2019-02-28T19:44:29.463Z,63.05
2019-02-28T19:46:59.075Z,62.91
2019-02-28T19:52:08.859Z,62.50
2019-02-28T19:54:38.389Z,62.56
2019-02-28T19:57:07.912Z,62.17
2019-02-28T19:59:37.441Z,62.23
2019-02-28T20:02:06.987Z,62.11
2019-02-28T20:04:36.574Z,62.29
2019-02-28T20:07:06.148Z,62.26
2019-02-28T20:09:35.684Z,62.16
2019-02-28T20:12:05.300Z,61.99
2019-02-28T20:14:34.832Z,61.83
2019-02-28T20:17:04.465Z,61.56
2019-02-28T20:19:34.019Z,61.42
2019-02-28T20:22:03.588Z,61.48
2019-02-28T20:24:33.144Z,61.56
2019-02-28T20:27:02.679Z,61.58
2019-02-28T20:29:32.303Z,61.80
2019-02-28T20:32:01.848Z,61.87
2019-02-28T20:34:31.364Z,61.84
2019-02-28T20:37:00.915Z,61.59
2019-02-28T20:39:30.614Z,61.23
2019-02-28T20:42:00.165Z,60.97
2019-02-28T20:44:29.686Z,61.02
2019-02-28T20:46:59.209Z,60.96
2019-02-28T20:49:28.743Z,61.12
2019-02-28T20:51:58.278Z,61.05
2019-02-28T20:54:27.841Z,60.92
2019-02-28T20:56:57.657Z,60.88
2019-02-28T20:59:27.207Z,60.73
2019-02-28T21:01:57.730Z,60.64
2019-02-28T21:04:27.274Z,60.69
2019-02-28T21:06:56.821Z,60.75
2019-02-28T21:09:27.132Z,60.56
2019-02-28T21:11:56.671Z,60.51
2019-02-28T21:14:26.277Z,60.26
2019-02-28T21:16:55.913Z,60.10
2019-02-28T21:19:25.431Z,60.23
2019-02-28T21:21:54.983Z,60.04
2019-02-28T21:24:24.530Z,59.99
2019-02-28T21:26:54.095Z,59.35
2019-02-28T21:29:23.613Z,59.03
2019-02-28T21:31:53.174Z,58.85
2019-02-28T21:34:22.792Z,58.86
2019-02-28T21:36:52.360Z,58.77
2019-02-28T21:39:23.373Z,58.83
2019-02-28T21:41:53.346Z,59.69
2019-02-28T21:44:22.941Z,60.67
2019-02-28T21:46:52.502Z,61.18
2019-02-28T21:49:22.048Z,62.26
2019-02-28T21:51:51.648Z,62.48
2019-02-28T21:54:21.175Z,63.38
2019-02-28T21:56:50.805Z,63.81
2019-02-28T21:59:20.477Z,64.06
2019-02-28T22:01:50.079Z,64.29
2019-02-28T22:04:34.304Z,64.27
2019-02-28T22:07:03.898Z,64.30
2019-02-28T22:09:33.445Z,65.64
2019-02-28T22:12:02.979Z,65.73
2019-02-28T22:14:32.503Z,65.60
2019-02-28T22:17:02.066Z,66.04
2019-02-28T22:19:31.595Z,66.09
2019-02-28T22:22:01.369Z,66.37
2019-02-28T22:24:30.908Z,67.04
2019-02-28T22:27:00.585Z,66.78
2019-02-28T22:29:30.319Z,66.92
2019-02-28T22:32:24.504Z,67.52
2019-02-28T22:35:04.552Z,68.09
2019-02-28T22:37:34.103Z,68.72
2019-02-28T22:40:04.102Z,68.76
2019-02-28T22:42:33.664Z,68.76
2019-02-28T22:45:03.358Z,68.56
2019-02-28T22:47:33.219Z,68.62
2019-02-28T22:50:02.792Z,68.67
2019-02-28T22:52:32.332Z,68.83
2019-02-28T22:55:03.133Z,68.78
2019-02-28T22:57:32.699Z,68.93
2019-02-28T23:00:02.644Z,69.04
2019-02-28T23:02:33.982Z,69.03
2019-02-28T23:05:03.550Z,69.35
2019-02-28T23:07:33.195Z,69.66
2019-02-28T23:10:02.730Z,69.35
2019-02-28T23:12:32.304Z,69.00
2019-02-28T23:15:01.872Z,68.80
2019-02-28T23:17:33.066Z,68.72
2019-02-28T23:20:02.694Z,68.21
2019-02-28T23:22:32.292Z,67.95
2019-02-28T23:25:01.856Z,67.96
2019-02-28T23:27:31.385Z,68.07
2019-02-28T23:30:30.187Z,68.49
2019-02-28T23:33:05.719Z,68.87
2019-02-28T23:35:41.028Z,69.26
2019-02-28T23:38:10.520Z,69.46
2019-02-28T23:40:40.123Z,69.23
2019-02-28T23:43:09.641Z,69.11
2019-02-28T23:45:39.182Z,69.17
2019-02-28T23:48:08.725Z,68.95
2019-02-28T23:50:38.331Z,69.33
2019-02-28T23:53:07.896Z,69.27
2019-02-28T23:55:37.454Z,69.52
2019-02-28T23:58:07.022Z,69.97
